Jizan Regional Airport

Current Flights

Info
Name: Jizan Regional Airport
Identifier:  GIZ/OEGN
Local Time:  24. May 04:06
Flights per Day
51 flights
Distance: 932km (579mi)
Punctuality
76% (12 flights per day delayed)
Delay Average: 40 minutes
Current Weather
 32 C (Humidity: 46%)
  0kt (0km/h / 0mph) from 0°
  Broken clouds at 3,000 feet (914 meter)
  9km (6 mi.)
No significant changes expected

 METAR OEGN 240000Z 00000KT 9999 BKN030 32/19 Q1009 NOSIG

Current Delays

Departures
N/A
Arrivals
50% delays
18 min. average

Destinations

Top Destinations
Airport Flights
per week
Seats
per week
  Riyadh (RUH) 182 10,395 26 1485
  Jeddah (JED) 154 12,481 22 1783
  Dammam (DMM) 35 2,450 5 350
  Tabuk (TUU) 7 980 1 140
  Sharjah (SHJ) 7 1,176 1 168
  Dubai (DWC) <1 1,078 0 154
  Cairo (CAI) <1 798 0 114
  Taif (TIF) <1 119 0 17
  Abha (AHB) <1 364 0 52

Airlines & Planes

Top Airlines
Airline Flights
per Day
Seats
per Day
  Saudi Arabian Airlines 34 1,165
  flynas 12 1,951
  flyadeal 5 124
  Air Arabia Jordan 4 589
  Air Arabia 1 168
  flydubai <1 154
  Nile Air <1 114
Top Plane Types
Manufacturer Model Flights Seats
Airbus A320 56.1/day 4,042/day 4042.2
Airbus A320 Neo 2.0/day - 0
Boeing B737-800 0.9/day 154/day 154.8
Airbus A319 0.5/day 60/day 60
Boeing B777-300 0.0/day 10/day 10.166666666666666